KPOC

Brackett Field Airport

La Verne, California, USA
METAR KPOC 160247Z 23009KT 10SM CLR 24/17 A2994
Observed Flight Rules
Aug-16 @ 02:47 UTC (3 hours ago) Visual Flight Rules
Wind Visibility Clouds
230° at 9 knots 10 miles
  • Clear skies
Temperatures Readings
Current 24°C / 75°F
Dewpoint 17°C / 63°F
Humidity 65%
Altimeter 29.94" Hg
Pressure 1014 hPa
Elevation 308
METAR KPOC 160247Z 23009KT 10SM CLR 24/17 A2994
Observed Flight Rules
Aug-16 @ 02:47 UTC
(3 hours ago)
VFR
Wind Visibility
230° at 9 knots 10 miles
Clouds
  • Clear skies
Temperature Dewpoint
24°C / 75°F 17°C / 63°F
Humidity Altimeter Pressure
65% 29.94" Hg 1014 hPa